createdAt,value
2023-04-02T00:00:33.742Z,9.43
2023-04-02T00:03:04.480Z,7.20
2023-04-02T00:05:51.002Z,4.85
2023-04-02T00:08:25.367Z,3.83
2023-04-02T00:10:56.115Z,3.22
2023-04-02T00:13:27.513Z,3.35
2023-04-02T00:15:58.850Z,2.50
2023-04-02T00:18:29.177Z,2.95
2023-04-02T00:21:03.413Z,2.85
2023-04-02T00:23:35.741Z,3.22
2023-04-02T00:26:09.123Z,3.72
2023-04-02T00:28:38.820Z,4.20
2023-04-02T00:31:08.595Z,5.60
2023-04-02T00:33:38.308Z,4.93
2023-04-02T00:36:08.928Z,5.38
2023-04-02T00:38:44.261Z,6.18
2023-04-02T00:41:18.051Z,6.07
2023-04-02T00:43:50.936Z,8.05
2023-04-02T00:46:24.471Z,9.40
2023-04-02T00:48:57.232Z,13.70
2023-04-02T00:51:29.084Z,12.65
2023-04-02T00:54:03.476Z,14.10
2023-04-02T00:56:35.689Z,21.92
2023-04-02T00:59:05.590Z,16.23
2023-04-02T01:01:42.767Z,12.82
2023-04-02T01:04:29.056Z,11.95
2023-04-02T01:06:59.928Z,11.50
2023-04-02T01:09:41.212Z,12.85
2023-04-02T01:12:25.067Z,13.07
2023-04-02T01:14:59.638Z,11.63
2023-04-02T01:17:50.424Z,12.20
2023-04-02T01:20:41.951Z,11.32
2023-04-02T01:23:14.500Z,12.23
2023-04-02T01:25:49.322Z,14.68
2023-04-02T01:28:22.455Z,13.02
2023-04-02T01:30:56.113Z,13.90
2023-04-02T01:33:26.512Z,15.82
2023-04-02T01:35:58.555Z,12.02
2023-04-02T01:38:30.336Z,10.23
2023-04-02T01:41:04.029Z,9.85
2023-04-02T01:43:38.000Z,10.60
2023-04-02T01:46:26.742Z,11.85
2023-04-02T01:48:56.803Z,11.45
2023-04-02T01:51:29.320Z,9.50
2023-04-02T01:54:02.371Z,11.05
2023-04-02T01:56:33.030Z,10.45
2023-04-02T01:59:04.211Z,9.85
2023-04-02T02:01:41.130Z,9.95
2023-04-02T02:04:14.806Z,8.50
2023-04-02T02:06:44.665Z,8.10
2023-04-02T02:09:17.347Z,10.20
2023-04-02T02:11:47.202Z,8.38
2023-04-02T02:14:18.833Z,9.88
2023-04-02T02:16:53.652Z,8.25
2023-04-02T02:19:26.565Z,7.20
2023-04-02T02:21:57.090Z,6.00
2023-04-02T02:24:28.492Z,7.45
2023-04-02T02:27:07.196Z,6.68
2023-04-02T02:29:40.175Z,6.03
2023-04-02T02:32:13.927Z,6.47
2023-04-02T02:34:49.058Z,9.18
2023-04-02T02:37:21.017Z,5.97
2023-04-02T02:39:52.923Z,6.53
2023-04-02T02:42:27.495Z,5.97
2023-04-02T02:44:59.358Z,8.15
2023-04-02T02:47:32.376Z,5.47
2023-04-02T02:50:06.300Z,5.78
2023-04-02T02:52:39.210Z,7.15
2023-04-02T02:55:14.912Z,6.55
2023-04-02T02:58:04.625Z,7.03
2023-04-02T03:00:40.892Z,7.28
2023-04-02T03:03:15.110Z,7.72
2023-04-02T03:05:45.139Z,6.45
2023-04-02T03:08:25.048Z,6.68
2023-04-02T03:10:57.485Z,7.68
2023-04-02T03:13:30.372Z,7.30
2023-04-02T03:16:03.430Z,7.30
2023-04-02T03:18:40.928Z,6.07
2023-04-02T03:21:16.631Z,7.18
2023-04-02T03:23:47.528Z,6.28
2023-04-02T03:26:21.176Z,6.28
2023-04-02T03:28:53.397Z,5.32
2023-04-02T03:31:26.743Z,5.35
2023-04-02T03:34:02.252Z,5.72
2023-04-02T03:36:34.811Z,5.72
2023-04-02T03:39:08.530Z,5.85
2023-04-02T03:41:43.329Z,4.13
2023-04-02T03:44:22.463Z,3.80
2023-04-02T03:46:57.505Z,5.15
2023-04-02T03:49:36.489Z,5.70
2023-04-02T03:52:08.298Z,6.05
2023-04-02T03:54:40.354Z,7.00
2023-04-02T03:57:28.273Z,5.53
2023-04-02T04:00:01.336Z,4.45
2023-04-02T04:02:38.245Z,5.70
2023-04-02T04:05:21.238Z,5.15
2023-04-02T04:07:53.165Z,5.57
2023-04-02T04:10:25.472Z,5.35
2023-04-02T04:12:57.336Z,5.80
2023-04-02T04:15:29.861Z,6.43
2023-04-02T04:18:02.654Z,4.78
2023-04-02T04:20:46.360Z,4.57
2023-04-02T04:23:26.001Z,5.80
2023-04-02T04:26:02.109Z,5.40
2023-04-02T04:28:38.627Z,5.95
2023-04-02T04:31:18.220Z,4.80
2023-04-02T04:33:55.259Z,4.45
2023-04-02T04:36:32.052Z,7.03
2023-04-02T04:39:09.834Z,6.13
2023-04-02T04:41:41.809Z,6.63
2023-04-02T04:44:17.393Z,7.35
2023-04-02T04:46:52.427Z,7.25
2023-04-02T04:49:27.216Z,8.32
2023-04-02T04:52:01.581Z,5.65
2023-04-02T04:54:31.570Z,5.88
2023-04-02T04:57:04.020Z,4.28
2023-04-02T04:59:36.194Z,3.78
2023-04-02T05:02:07.921Z,3.60
2023-04-02T05:04:40.569Z,3.63
2023-04-02T05:07:18.617Z,2.53
2023-04-02T05:09:55.041Z,2.78
2023-04-02T05:12:34.892Z,3.15
2023-04-02T05:15:09.330Z,3.75
2023-04-02T05:17:41.174Z,4.28
2023-04-02T05:20:16.553Z,2.88
2023-04-02T05:22:56.174Z,2.97
2023-04-02T05:25:28.797Z,3.08
2023-04-02T05:28:06.484Z,2.65
2023-04-02T05:30:46.742Z,2.63
2023-04-02T05:33:21.069Z,2.28
2023-04-02T05:35:53.983Z,2.80
2023-04-02T05:38:28.957Z,3.28
2023-04-02T05:41:03.101Z,3.55
2023-04-02T05:43:35.763Z,3.80
2023-04-02T05:46:09.949Z,3.03
2023-04-02T05:48:43.536Z,4.32
2023-04-02T05:51:20.414Z,3.42
2023-04-02T05:53:54.496Z,3.33
2023-04-02T05:56:27.040Z,3.40
2023-04-02T05:58:59.467Z,5.85
2023-04-02T06:01:36.552Z,3.28
2023-04-02T06:04:16.554Z,3.22
2023-04-02T06:06:51.156Z,3.70
2023-04-02T06:09:27.833Z,4.57
2023-04-02T06:12:13.702Z,4.40
2023-04-02T06:14:44.104Z,3.55
2023-04-02T06:17:16.376Z,3.15
2023-04-02T06:19:46.228Z,4.38
2023-04-02T06:22:22.004Z,2.85
2023-04-02T06:24:58.806Z,3.63
2023-04-02T06:27:29.327Z,3.40
2023-04-02T06:30:03.900Z,2.90
2023-04-02T06:32:35.005Z,4.03
2023-04-02T06:35:05.412Z,3.83
2023-04-02T06:37:36.511Z,3.00
2023-04-02T06:40:29.135Z,3.45
2023-04-02T06:43:00.487Z,4.15
2023-04-02T06:45:38.769Z,2.78
2023-04-02T06:48:20.333Z,4.45
2023-04-02T06:50:58.314Z,3.88
2023-04-02T06:53:29.508Z,3.08
2023-04-02T06:56:05.971Z,3.80
2023-04-02T06:58:37.330Z,2.88
2023-04-02T07:01:07.423Z,4.65
2023-04-02T07:03:45.096Z,4.60
2023-04-02T07:06:25.089Z,4.30
2023-04-02T07:08:57.317Z,2.70
2023-04-02T07:11:30.781Z,2.97
2023-04-02T07:14:03.633Z,3.00
2023-04-02T07:16:36.837Z,3.95
2023-04-02T07:19:06.891Z,3.55
2023-04-02T07:21:38.927Z,4.60
2023-04-02T07:24:09.492Z,5.07
2023-04-02T07:26:42.080Z,3.92
2023-04-02T07:29:12.359Z,4.32
2023-04-02T07:31:42.649Z,4.75
2023-04-02T07:34:12.479Z,5.75
2023-04-02T07:36:42.164Z,6.13
2023-04-02T07:39:12.443Z,4.53
2023-04-02T07:41:56.903Z,4.78
2023-04-02T07:44:29.288Z,8.93
2023-04-02T07:46:59.053Z,6.68
2023-04-02T07:49:28.835Z,7.75
2023-04-02T07:51:58.525Z,11.13
2023-04-02T07:54:28.500Z,7.82
2023-04-02T07:56:58.177Z,9.45
2023-04-02T07:59:30.498Z,6.53
2023-04-02T08:02:00.414Z,8.98
2023-04-02T08:04:30.176Z,7.85
2023-04-02T08:07:00.106Z,7.30
2023-04-02T08:09:29.796Z,6.88
2023-04-02T08:11:59.515Z,12.55
2023-04-02T08:14:31.810Z,11.57
2023-04-02T08:17:01.909Z,12.13
2023-04-02T08:19:32.729Z,9.95
2023-04-02T08:22:04.747Z,10.00
2023-04-02T08:24:34.432Z,6.38
2023-04-02T08:27:05.093Z,6.95
2023-04-02T08:29:37.417Z,7.82
2023-04-02T08:32:07.763Z,8.13
2023-04-02T08:34:37.457Z,9.63
2023-04-02T08:37:08.014Z,7.93
2023-04-02T08:39:37.749Z,7.75
2023-04-02T08:42:10.734Z,7.20
2023-04-02T08:44:52.002Z,6.20
2023-04-02T08:47:22.159Z,5.55
2023-04-02T08:49:53.761Z,7.85
2023-04-02T08:52:25.213Z,5.60
2023-04-02T08:54:56.475Z,7.78
2023-04-02T08:57:31.462Z,5.13
2023-04-02T09:00:10.929Z,5.60
2023-04-02T09:05:18.779Z,9.07
2023-04-02T09:07:49.413Z,5.53
2023-04-02T09:10:20.001Z,5.25
2023-04-02T09:12:53.822Z,6.10
2023-04-02T09:15:31.900Z,7.50
2023-04-02T09:18:04.053Z,5.97
2023-04-02T09:20:33.781Z,5.63
2023-04-02T09:23:03.485Z,6.50
2023-04-02T09:25:34.494Z,5.22
2023-04-02T09:28:06.001Z,5.40
2023-04-02T09:30:44.869Z,6.55
2023-04-02T09:33:14.723Z,6.90
2023-04-02T09:35:58.067Z,6.28
2023-04-02T09:38:30.909Z,6.80
2023-04-02T09:41:02.376Z,7.13
2023-04-02T09:43:33.165Z,5.78
2023-04-02T09:46:06.552Z,6.53
2023-04-02T09:48:37.097Z,5.63
2023-04-02T09:51:17.271Z,6.75
2023-04-02T09:53:49.489Z,6.65
2023-04-02T09:56:21.948Z,4.90
2023-04-02T09:59:05.569Z,6.35
2023-04-02T10:01:39.027Z,8.13
2023-04-02T10:04:09.845Z,6.80
2023-04-02T10:06:39.623Z,6.38
2023-04-02T10:09:30.747Z,4.80
2023-04-02T10:12:01.919Z,7.47
2023-04-02T10:14:33.444Z,4.68
2023-04-02T10:17:10.600Z,7.05
2023-04-02T10:19:41.767Z,5.88
2023-04-02T10:22:15.946Z,6.00
2023-04-02T10:24:45.804Z,6.03
2023-04-02T10:27:22.704Z,6.65
2023-04-02T10:29:58.464Z,3.75
2023-04-02T10:32:33.082Z,5.45
2023-04-02T10:35:04.921Z,4.13
2023-04-02T10:37:49.840Z,3.72
2023-04-02T10:40:22.220Z,4.70
2023-04-02T10:42:55.857Z,4.53
2023-04-02T10:45:34.199Z,4.93
2023-04-02T10:48:09.444Z,5.45
2023-04-02T10:50:44.912Z,5.93
2023-04-02T10:53:17.452Z,6.22
2023-04-02T10:55:48.521Z,5.53
2023-04-02T10:58:22.847Z,6.28
2023-04-02T11:00:53.637Z,5.50
2023-04-02T11:03:32.280Z,6.15
2023-04-02T11:06:04.086Z,5.00
2023-04-02T11:08:39.244Z,6.82
2023-04-02T11:11:12.195Z,5.60
2023-04-02T11:13:48.534Z,5.80
2023-04-02T11:16:18.327Z,6.45
2023-04-02T11:19:02.916Z,4.40
2023-04-02T11:21:57.385Z,5.47
2023-04-02T11:24:43.746Z,4.70
2023-04-02T11:27:20.877Z,6.57
2023-04-02T11:29:52.247Z,5.38
2023-04-02T11:32:33.952Z,3.95
2023-04-02T11:35:07.462Z,4.57
2023-04-02T11:37:42.943Z,3.92
2023-04-02T11:40:27.411Z,4.93
2023-04-02T11:42:57.116Z,3.88
2023-04-02T11:45:52.014Z,3.28
2023-04-02T11:48:34.083Z,4.18
2023-04-02T11:51:05.661Z,4.88
2023-04-02T11:53:38.715Z,5.63
2023-04-02T11:56:10.277Z,3.95
2023-04-02T11:59:03.309Z,3.47
2023-04-02T12:01:38.876Z,4.93
2023-04-02T12:04:13.918Z,4.97
2023-04-02T12:06:52.654Z,5.78
2023-04-02T12:09:25.639Z,4.63
2023-04-02T12:11:56.613Z,4.28
2023-04-02T12:14:35.763Z,4.25
2023-04-02T12:17:09.309Z,4.75
2023-04-02T12:19:39.776Z,4.85
2023-04-02T12:22:18.067Z,3.08
2023-04-02T12:24:50.932Z,4.15
2023-04-02T12:27:22.813Z,4.13
2023-04-02T12:29:52.902Z,5.13
2023-04-02T12:32:24.912Z,4.78
2023-04-02T12:34:55.968Z,4.75
2023-04-02T12:37:27.250Z,6.63
2023-04-02T12:40:01.449Z,6.90
2023-04-02T12:42:35.359Z,5.65
2023-04-02T12:45:05.749Z,5.90
2023-04-02T12:47:36.647Z,6.03
2023-04-02T12:50:07.142Z,5.22
2023-04-02T12:52:36.980Z,6.47
2023-04-02T12:55:09.953Z,5.72
2023-04-02T12:57:46.180Z,5.63
2023-04-02T13:00:36.260Z,5.60
2023-04-02T13:03:20.535Z,4.90
2023-04-02T13:05:52.751Z,5.35
2023-04-02T13:08:23.500Z,5.40
2023-04-02T13:11:00.593Z,4.00
2023-04-02T13:13:33.083Z,6.20
2023-04-02T13:16:03.856Z,3.53
2023-04-02T13:18:34.972Z,6.15
2023-04-02T13:21:05.669Z,5.78
2023-04-02T13:23:37.165Z,4.53
2023-04-02T13:26:19.001Z,4.07
2023-04-02T13:28:58.401Z,3.85
2023-04-02T13:36:29.559Z,3.10
2023-04-02T13:38:59.332Z,2.75
2023-04-02T13:41:32.760Z,3.30
2023-04-02T13:44:03.603Z,4.35
2023-04-02T13:46:34.189Z,3.80
2023-04-02T13:49:04.560Z,4.13
2023-04-02T13:51:37.462Z,3.97
2023-04-02T13:54:08.459Z,3.35
2023-04-02T13:56:41.473Z,5.32
2023-04-02T13:59:11.660Z,3.60
2023-04-02T14:01:41.913Z,4.10
2023-04-02T14:04:12.447Z,5.47
2023-04-02T14:06:59.794Z,4.70
2023-04-02T14:09:33.777Z,5.63
2023-04-02T14:12:09.133Z,3.42
2023-04-02T14:14:49.262Z,3.28
2023-04-02T14:17:23.944Z,4.82
2023-04-02T14:19:59.301Z,4.43
2023-04-02T14:22:34.381Z,4.60
2023-04-02T14:25:07.848Z,3.70
2023-04-02T14:27:43.962Z,3.47
2023-04-02T14:30:18.477Z,4.13
2023-04-02T14:32:55.054Z,6.18
2023-04-02T14:35:26.022Z,4.57
2023-04-02T14:37:58.044Z,4.70
2023-04-02T14:40:30.073Z,5.45
2023-04-02T14:43:04.767Z,4.00
2023-04-02T14:45:43.250Z,5.57
2023-04-02T14:48:19.529Z,5.47
2023-04-02T14:50:49.442Z,5.00
2023-04-02T14:53:22.806Z,5.05
2023-04-02T14:55:55.041Z,5.82
2023-04-02T14:58:29.292Z,5.57
2023-04-02T15:01:00.818Z,5.50
2023-04-02T15:03:32.234Z,5.40
2023-04-02T15:06:03.201Z,6.07
2023-04-02T15:08:35.442Z,4.72
2023-04-02T15:11:08.488Z,4.03
2023-04-02T15:13:44.232Z,5.82
2023-04-02T15:16:16.284Z,4.43
2023-04-02T15:18:46.032Z,4.15
2023-04-02T15:21:29.699Z,4.80
2023-04-02T15:24:03.561Z,4.30
2023-04-02T15:26:38.576Z,4.90
2023-04-02T15:29:27.830Z,5.03
2023-04-02T15:45:26.173Z,5.13
2023-04-02T15:48:16.289Z,5.47
2023-04-02T15:50:50.773Z,4.32
2023-04-02T15:53:34.789Z,4.68
2023-04-02T15:56:15.105Z,5.55
2023-04-02T15:59:05.984Z,4.40
2023-04-02T16:01:44.861Z,4.75
2023-04-02T16:04:40.663Z,6.10
2023-04-02T16:18:40.701Z,5.22
2023-04-02T16:21:10.730Z,5.72
2023-04-02T16:23:41.455Z,5.50
2023-04-02T16:26:19.288Z,5.35
2023-04-02T16:28:52.490Z,5.80
2023-04-02T16:31:24.842Z,6.22
2023-04-02T16:34:02.649Z,3.80
2023-04-02T16:36:42.100Z,5.13
2023-04-02T16:41:49.519Z,3.50
2023-04-02T16:44:25.173Z,4.03
2023-04-02T16:46:58.173Z,4.97
2023-04-02T16:49:36.328Z,5.50
2023-04-02T16:52:13.501Z,4.53
2023-04-02T16:54:48.022Z,5.45
2023-04-02T16:57:26.214Z,4.72
2023-04-02T17:00:00.185Z,4.80
2023-04-02T17:02:36.083Z,4.35
2023-04-02T17:05:12.995Z,4.57
2023-04-02T17:07:46.883Z,5.50
2023-04-02T17:10:30.424Z,4.97
2023-04-02T17:13:05.148Z,4.20
2023-04-02T17:15:38.319Z,5.70
2023-04-02T17:18:12.944Z,3.80
2023-04-02T17:20:45.426Z,4.85
2023-04-02T17:23:16.439Z,4.80
2023-04-02T17:25:49.646Z,5.03
2023-04-02T17:28:25.587Z,4.63
2023-04-02T17:30:56.856Z,4.55
2023-04-02T17:33:28.673Z,4.90
2023-04-02T17:36:16.480Z,3.70
2023-04-02T17:38:48.889Z,3.90
2023-04-02T17:41:22.726Z,4.43
2023-04-02T17:43:55.672Z,4.65
2023-04-02T17:46:30.017Z,4.50
2023-04-02T17:49:03.685Z,3.38
2023-04-02T17:51:38.434Z,5.78
2023-04-02T17:54:16.204Z,4.93
2023-04-02T17:56:56.069Z,5.22
2023-04-02T17:59:33.045Z,4.70
2023-04-02T18:02:10.489Z,3.30
2023-04-02T18:04:44.489Z,3.58
2023-04-02T18:07:22.657Z,5.05
2023-04-02T18:09:57.430Z,4.50
2023-04-02T18:12:34.624Z,5.15
2023-04-02T18:15:12.371Z,6.05
2023-04-02T18:17:49.199Z,6.65
2023-04-02T18:20:27.705Z,5.75
2023-04-02T18:23:04.027Z,5.90
2023-04-02T18:25:54.442Z,5.10
2023-04-02T18:28:33.854Z,3.90
2023-04-02T18:38:37.499Z,5.10
2023-04-02T18:41:13.993Z,4.07
2023-04-02T18:43:50.014Z,5.10
2023-04-02T18:46:23.207Z,6.07
2023-04-02T18:48:56.947Z,3.65
2023-04-02T18:51:27.962Z,3.35
2023-04-02T18:54:04.470Z,5.00
2023-04-02T18:56:34.934Z,7.07
2023-04-02T18:59:09.241Z,4.93
2023-04-02T19:04:13.697Z,5.47
2023-04-02T19:07:03.464Z,6.22
2023-04-02T19:09:37.841Z,4.78
2023-04-02T19:12:10.244Z,5.25
2023-04-02T19:14:39.923Z,5.65
2023-04-02T19:17:12.834Z,6.53
2023-04-02T19:19:46.304Z,4.45
2023-04-02T19:22:18.923Z,6.30
2023-04-02T19:25:08.020Z,7.70
2023-04-02T19:27:48.222Z,6.43
2023-04-02T19:30:35.084Z,5.40
2023-04-02T19:33:08.277Z,5.05
2023-04-02T19:35:39.871Z,4.38
2023-04-02T19:38:13.801Z,3.22
2023-04-02T19:40:46.390Z,5.45
2023-04-02T19:43:18.698Z,5.78
2023-04-02T19:45:49.422Z,3.90
2023-04-02T19:48:21.896Z,4.75
2023-04-02T19:50:53.558Z,3.78
2023-04-02T19:53:23.243Z,3.00
2023-04-02T19:55:53.655Z,3.97
2023-04-02T19:58:30.302Z,4.28
2023-04-02T20:01:00.814Z,3.45
2023-04-02T20:03:31.588Z,3.42
2023-04-02T20:06:01.518Z,2.20
2023-04-02T20:08:31.507Z,3.03
2023-04-02T20:11:01.854Z,1.90
2023-04-02T20:13:34.188Z,3.00
2023-04-02T20:16:04.394Z,2.13
2023-04-02T20:18:34.355Z,2.80
2023-04-02T20:21:06.941Z,3.35
2023-04-02T20:23:36.760Z,3.60
2023-04-02T20:26:07.267Z,2.60
2023-04-02T20:28:39.574Z,2.63
2023-04-02T20:31:11.361Z,2.35
2023-04-02T20:33:41.612Z,2.33
2023-04-02T20:36:13.098Z,1.00
2023-04-02T20:38:43.536Z,2.47
2023-04-02T20:41:15.807Z,3.13
2023-04-02T20:43:48.082Z,2.58
2023-04-02T20:46:17.846Z,3.17
2023-04-02T20:48:47.760Z,2.88
2023-04-02T20:51:18.095Z,2.50
2023-04-02T20:53:47.965Z,3.55
2023-04-02T20:56:19.629Z,2.83
2023-04-02T20:58:52.042Z,2.80
2023-04-02T21:01:22.632Z,3.30
2023-04-02T21:03:52.795Z,3.13
2023-04-02T21:06:23.430Z,3.05
2023-04-02T21:08:53.454Z,2.83
2023-04-02T21:11:23.217Z,2.72
2023-04-02T21:13:55.585Z,2.42
2023-04-02T21:16:28.515Z,3.03
2023-04-02T21:18:59.207Z,3.08
2023-04-02T21:21:28.993Z,2.42
2023-04-02T21:23:59.527Z,3.25
2023-04-02T21:26:30.650Z,2.95
2023-04-02T21:29:04.208Z,3.30
2023-04-02T21:31:36.809Z,3.25
2023-04-02T21:34:07.200Z,3.13
2023-04-02T21:36:38.049Z,3.08
2023-04-02T21:39:09.154Z,3.25
2023-04-02T21:41:40.312Z,2.67
2023-04-02T21:44:15.855Z,4.03
2023-04-02T21:46:46.347Z,2.15
2023-04-02T21:49:17.698Z,3.00
2023-04-02T21:51:49.206Z,2.60
2023-04-02T21:54:19.031Z,2.40
2023-04-02T21:56:49.309Z,3.50
2023-04-02T21:59:21.967Z,3.72
2023-04-02T22:01:52.650Z,2.60
2023-04-02T22:04:23.384Z,3.58
2023-04-02T22:06:53.637Z,3.95
2023-04-02T22:09:24.596Z,3.58
2023-04-02T22:11:55.737Z,3.67
2023-04-02T22:14:28.028Z,3.65
2023-04-02T22:16:59.119Z,3.13
2023-04-02T22:19:29.457Z,2.45
2023-04-02T22:21:59.370Z,2.22
2023-04-02T22:24:29.055Z,3.20
2023-04-02T22:26:58.795Z,2.55
2023-04-02T22:29:31.190Z,3.05
2023-04-02T22:32:01.031Z,2.20
2023-04-02T22:34:30.921Z,2.28
2023-04-02T22:37:00.680Z,2.38
2023-04-02T22:39:30.473Z,2.35
2023-04-02T22:42:00.144Z,2.53
2023-04-02T22:44:32.486Z,3.28
2023-04-02T22:47:02.173Z,3.03
2023-04-02T22:49:32.052Z,3.33
2023-04-02T22:52:01.849Z,2.13
2023-04-02T22:54:31.548Z,2.25
2023-04-02T22:57:01.462Z,2.28
2023-04-02T22:59:33.775Z,2.92
2023-04-02T23:02:03.614Z,2.47
2023-04-02T23:04:33.419Z,2.10
2023-04-02T23:07:03.129Z,2.80
2023-04-02T23:09:32.956Z,1.70
2023-04-02T23:12:02.629Z,2.38
2023-04-02T23:14:34.900Z,2.25
2023-04-02T23:17:04.564Z,1.10
2023-04-02T23:19:34.225Z,1.52
2023-04-02T23:22:03.902Z,1.70
2023-04-02T23:24:33.643Z,1.70
2023-04-02T23:27:03.383Z,1.33
2023-04-02T23:29:35.695Z,1.83
2023-04-02T23:32:05.391Z,2.08
2023-04-02T23:34:35.083Z,1.40
2023-04-02T23:37:04.776Z,1.50
2023-04-02T23:39:34.457Z,1.27
2023-04-02T23:42:04.146Z,2.50
2023-04-02T23:44:36.625Z,2.10
2023-04-02T23:47:06.906Z,1.75
2023-04-02T23:49:36.950Z,2.20
2023-04-02T23:52:06.659Z,2.42
2023-04-02T23:54:36.372Z,2.53
2023-04-02T23:57:06.165Z,2.35
2023-04-02T23:59:38.427Z,1.95
